sensor_id;sensor_type;location;lat;lon;timestamp;P1;durP1;ratioP1;P2;durP2;ratioP2
483;SDS011;228;48.922;12.198;2023-06-10T04:02:55;7.47;;;6.40;;
483;SDS011;228;48.922;12.198;2023-06-10T04:05:36;7.97;;;6.03;;
483;SDS011;228;48.922;12.198;2023-06-10T04:08:04;7.60;;;6.37;;
483;SDS011;228;48.922;12.198;2023-06-10T04:10:30;7.70;;;6.70;;
483;SDS011;228;48.922;12.198;2023-06-10T04:12:56;8.60;;;6.80;;
483;SDS011;228;48.922;12.198;2023-06-10T04:15:26;7.80;;;6.47;;
483;SDS011;228;48.922;12.198;2023-06-10T04:17:52;7.60;;;6.63;;
483;SDS011;228;48.922;12.198;2023-06-10T04:20:21;8.23;;;6.27;;
483;SDS011;228;48.922;12.198;2023-06-10T04:22:48;8.40;;;6.63;;
483;SDS011;228;48.922;12.198;2023-06-10T04:25:15;8.60;;;6.33;;
483;SDS011;228;48.922;12.198;2023-06-10T04:27:43;7.87;;;7.07;;
483;SDS011;228;48.922;12.198;2023-06-10T04:30:09;7.90;;;6.30;;
483;SDS011;228;48.922;12.198;2023-06-10T04:32:37;10.33;;;7.03;;
483;SDS011;228;48.922;12.198;2023-06-10T04:35:07;8.43;;;6.53;;
483;SDS011;228;48.922;12.198;2023-06-10T04:37:37;7.77;;;6.67;;
483;SDS011;228;48.922;12.198;2023-06-10T04:40:03;8.33;;;6.80;;
483;SDS011;228;48.922;12.198;2023-06-10T04:42:31;7.33;;;6.57;;
483;SDS011;228;48.922;12.198;2023-06-10T04:44:57;8.67;;;7.40;;
483;SDS011;228;48.922;12.198;2023-06-10T04:47:23;7.80;;;6.97;;
483;SDS011;228;48.922;12.198;2023-06-10T04:49:52;7.43;;;6.43;;
483;SDS011;228;48.922;12.198;2023-06-10T04:52:20;8.83;;;7.10;;
483;SDS011;228;48.922;12.198;2023-06-10T04:54:46;8.53;;;7.17;;
483;SDS011;228;48.922;12.198;2023-06-10T04:57:13;8.40;;;7.17;;
483;SDS011;228;48.922;12.198;2023-06-10T04:59:39;9.37;;;7.80;;
483;SDS011;228;48.922;12.198;2023-06-10T05:02:05;8.68;;;7.22;;
483;SDS011;228;48.922;12.198;2023-06-10T05:04:31;9.15;;;7.50;;
483;SDS011;228;48.922;12.198;2023-06-10T05:06:57;8.80;;;7.57;;
483;SDS011;228;48.922;12.198;2023-06-10T05:09:23;10.83;;;7.83;;
483;SDS011;228;48.922;12.198;2023-06-10T05:11:51;9.80;;;7.90;;
483;SDS011;228;48.922;12.198;2023-06-10T05:14:18;8.27;;;7.40;;
483;SDS011;228;48.922;12.198;2023-06-10T05:16:47;10.27;;;7.50;;
483;SDS011;228;48.922;12.198;2023-06-10T05:19:14;8.95;;;8.05;;
483;SDS011;228;48.922;12.198;2023-06-10T05:21:41;8.48;;;6.90;;
483;SDS011;228;48.922;12.198;2023-06-10T05:24:07;8.75;;;7.35;;
483;SDS011;228;48.922;12.198;2023-06-10T05:26:33;11.88;;;8.05;;
483;SDS011;228;48.922;12.198;2023-06-10T05:29:03;9.13;;;8.20;;
483;SDS011;228;48.922;12.198;2023-06-10T05:31:30;10.38;;;7.85;;
483;SDS011;228;48.922;12.198;2023-06-10T05:33:56;10.70;;;7.72;;
483;SDS011;228;48.922;12.198;2023-06-10T05:36:22;8.25;;;7.38;;
483;SDS011;228;48.922;12.198;2023-06-10T05:38:50;8.75;;;7.88;;
483;SDS011;228;48.922;12.198;2023-06-10T05:41:16;8.80;;;7.80;;
483;SDS011;228;48.922;12.198;2023-06-10T05:43:42;9.75;;;7.93;;
483;SDS011;228;48.922;12.198;2023-06-10T05:46:08;9.18;;;7.72;;
483;SDS011;228;48.922;12.198;2023-06-10T05:48:34;9.77;;;7.75;;
483;SDS011;228;48.922;12.198;2023-06-10T05:51:00;8.93;;;8.00;;
483;SDS011;228;48.922;12.198;2023-06-10T05:53:27;8.80;;;7.90;;
483;SDS011;228;48.922;12.198;2023-06-10T05:55:53;11.73;;;7.82;;
483;SDS011;228;48.922;12.198;2023-06-10T05:58:23;9.95;;;7.60;;
483;SDS011;228;48.922;12.198;2023-06-10T06:00:49;8.25;;;7.00;;
483;SDS011;228;48.922;12.198;2023-06-10T06:03:15;7.95;;;6.82;;
483;SDS011;228;48.922;12.198;2023-06-10T06:05:43;7.80;;;7.00;;
483;SDS011;228;48.922;12.198;2023-06-10T06:08:09;7.40;;;6.57;;
483;SDS011;228;48.922;12.198;2023-06-10T06:10:37;7.15;;;6.50;;
483;SDS011;228;48.922;12.198;2023-06-10T06:13:03;7.05;;;6.35;;
483;SDS011;228;48.922;12.198;2023-06-10T06:15:29;7.13;;;6.43;;
483;SDS011;228;48.922;12.198;2023-06-10T06:17:55;7.50;;;6.07;;
483;SDS011;228;48.922;12.198;2023-06-10T06:20:21;7.40;;;6.60;;
483;SDS011;228;48.922;12.198;2023-06-10T06:22:47;6.95;;;6.35;;
483;SDS011;228;48.922;12.198;2023-06-10T06:25:14;6.32;;;5.72;;
483;SDS011;228;48.922;12.198;2023-06-10T06:27:40;6.32;;;5.50;;
483;SDS011;228;48.922;12.198;2023-06-10T06:30:07;6.18;;;5.57;;
483;SDS011;228;48.922;12.198;2023-06-10T06:32:34;5.57;;;5.03;;
483;SDS011;228;48.922;12.198;2023-06-10T06:35:00;6.43;;;5.13;;
483;SDS011;228;48.922;12.198;2023-06-10T06:37:27;5.40;;;4.65;;
483;SDS011;228;48.922;12.198;2023-06-10T06:40:11;5.55;;;5.05;;
483;SDS011;228;48.922;12.198;2023-06-10T06:42:38;5.47;;;4.97;;
483;SDS011;228;48.922;12.198;2023-06-10T06:45:26;5.47;;;4.97;;
483;SDS011;228;48.922;12.198;2023-06-10T06:47:52;5.60;;;5.10;;
483;SDS011;228;48.922;12.198;2023-06-10T06:50:19;6.28;;;5.68;;
483;SDS011;228;48.922;12.198;2023-06-10T06:52:45;5.60;;;5.10;;
483;SDS011;228;48.922;12.198;2023-06-10T06:55:11;5.35;;;4.95;;
483;SDS011;228;48.922;12.198;2023-06-10T06:57:37;7.10;;;5.88;;
483;SDS011;228;48.922;12.198;2023-06-10T07:00:03;5.40;;;4.88;;
483;SDS011;228;48.922;12.198;2023-06-10T07:02:30;5.20;;;4.75;;
483;SDS011;228;48.922;12.198;2023-06-10T07:04:58;6.28;;;5.68;;
483;SDS011;228;48.922;12.198;2023-06-10T07:07:24;6.10;;;5.55;;
483;SDS011;228;48.922;12.198;2023-06-10T07:09:52;10.50;;;5.65;;
483;SDS011;228;48.922;12.198;2023-06-10T07:12:18;6.13;;;5.53;;
483;SDS011;228;48.922;12.198;2023-06-10T07:14:44;5.53;;;5.03;;
483;SDS011;228;48.922;12.198;2023-06-10T07:17:10;6.15;;;5.55;;
483;SDS011;228;48.922;12.198;2023-06-10T07:19:36;5.97;;;5.10;;
483;SDS011;228;48.922;12.198;2023-06-10T07:22:02;6.30;;;5.40;;
483;SDS011;228;48.922;12.198;2023-06-10T07:24:28;6.15;;;5.60;;
483;SDS011;228;48.922;12.198;2023-06-10T07:26:54;7.90;;;5.47;;
483;SDS011;228;48.922;12.198;2023-06-10T07:29:20;6.10;;;5.60;;
483;SDS011;228;48.922;12.198;2023-06-10T07:31:46;5.95;;;5.35;;
483;SDS011;228;48.922;12.198;2023-06-10T07:34:12;5.95;;;5.45;;
483;SDS011;228;48.922;12.198;2023-06-10T07:36:38;6.38;;;5.68;;
483;SDS011;228;48.922;12.198;2023-06-10T07:39:04;7.28;;;5.93;;
483;SDS011;228;48.922;12.198;2023-06-10T07:41:31;6.45;;;5.85;;
483;SDS011;228;48.922;12.198;2023-06-10T07:43:57;6.15;;;5.55;;
483;SDS011;228;48.922;12.198;2023-06-10T07:46:23;7.70;;;5.60;;
483;SDS011;228;48.922;12.198;2023-06-10T07:48:50;7.15;;;6.13;;
483;SDS011;228;48.922;12.198;2023-06-10T07:51:16;7.00;;;5.97;;
483;SDS011;228;48.922;12.198;2023-06-10T07:53:42;6.95;;;6.32;;
483;SDS011;228;48.922;12.198;2023-06-10T07:56:08;6.35;;;5.78;;
483;SDS011;228;48.922;12.198;2023-06-10T07:58:35;6.40;;;5.80;;
483;SDS011;228;48.922;12.198;2023-06-10T08:01:01;6.40;;;5.80;;
483;SDS011;228;48.922;12.198;2023-06-10T08:03:27;6.93;;;6.30;;
483;SDS011;228;48.922;12.198;2023-06-10T08:05:53;6.82;;;6.18;;
483;SDS011;228;48.922;12.198;2023-06-10T08:08:19;6.53;;;5.90;;
483;SDS011;228;48.922;12.198;2023-06-10T08:10:45;6.20;;;5.70;;
483;SDS011;228;48.922;12.198;2023-06-10T08:13:11;5.85;;;5.25;;
483;SDS011;228;48.922;12.198;2023-06-10T08:15:37;5.75;;;5.25;;
483;SDS011;228;48.922;12.198;2023-06-10T08:18:03;6.13;;;5.57;;
483;SDS011;228;48.922;12.198;2023-06-10T08:20:29;8.85;;;6.10;;
483;SDS011;228;48.922;12.198;2023-06-10T08:22:56;6.28;;;5.68;;
483;SDS011;228;48.922;12.198;2023-06-10T08:25:22;5.78;;;5.28;;
483;SDS011;228;48.922;12.198;2023-06-10T08:27:48;6.50;;;5.88;;
483;SDS011;228;48.922;12.198;2023-06-10T08:30:14;5.95;;;5.45;;
483;SDS011;228;48.922;12.198;2023-06-10T08:32:40;6.28;;;5.22;;
483;SDS011;228;48.922;12.198;2023-06-10T08:35:06;6.22;;;5.72;;
483;SDS011;228;48.922;12.198;2023-06-10T08:37:33;6.18;;;5.57;;
483;SDS011;228;48.922;12.198;2023-06-10T08:39:59;5.93;;;5.35;;
483;SDS011;228;48.922;12.198;2023-06-10T08:42:28;5.93;;;5.43;;
483;SDS011;228;48.922;12.198;2023-06-10T08:45:11;6.75;;;6.07;;
483;SDS011;228;48.922;12.198;2023-06-10T08:47:44;6.20;;;5.70;;
483;SDS011;228;48.922;12.198;2023-06-10T08:50:14;5.68;;;5.18;;
483;SDS011;228;48.922;12.198;2023-06-10T08:52:44;7.38;;;5.88;;
483;SDS011;228;48.922;12.198;2023-06-10T08:55:15;6.30;;;5.80;;
483;SDS011;228;48.922;12.198;2023-06-10T08:57:51;6.75;;;5.95;;
483;SDS011;228;48.922;12.198;2023-06-10T09:00:18;5.30;;;4.90;;
483;SDS011;228;48.922;12.198;2023-06-10T09:02:45;6.18;;;5.57;;
483;SDS011;228;48.922;12.198;2023-06-10T09:05:12;6.60;;;5.60;;
483;SDS011;228;48.922;12.198;2023-06-10T09:07:39;6.20;;;5.70;;
483;SDS011;228;48.922;12.198;2023-06-10T09:10:06;5.97;;;5.47;;
483;SDS011;228;48.922;12.198;2023-06-10T09:12:33;5.75;;;5.18;;
483;SDS011;228;48.922;12.198;2023-06-10T09:15:03;5.53;;;5.07;;
483;SDS011;228;48.922;12.198;2023-06-10T09:17:33;5.70;;;5.20;;
483;SDS011;228;48.922;12.198;2023-06-10T09:20:03;5.78;;;5.38;;
483;SDS011;228;48.922;12.198;2023-06-10T09:22:31;5.28;;;4.78;;
483;SDS011;228;48.922;12.198;2023-06-10T09:25:02;5.55;;;5.05;;
483;SDS011;228;48.922;12.198;2023-06-10T09:27:45;6.00;;;5.50;;
483;SDS011;228;48.922;12.198;2023-06-10T09:30:29;5.68;;;5.28;;
483;SDS011;228;48.922;12.198;2023-06-10T09:32:58;7.68;;;5.15;;
483;SDS011;228;48.922;12.198;2023-06-10T09:35:29;6.05;;;5.45;;
483;SDS011;228;48.922;12.198;2023-06-10T09:37:57;5.90;;;5.32;;
483;SDS011;228;48.922;12.198;2023-06-10T09:40:26;5.72;;;5.10;;
483;SDS011;228;48.922;12.198;2023-06-10T09:42:56;5.85;;;5.25;;
483;SDS011;228;48.922;12.198;2023-06-10T09:45:31;6.32;;;5.30;;
483;SDS011;228;48.922;12.198;2023-06-10T09:47:58;5.43;;;4.93;;
483;SDS011;228;48.922;12.198;2023-06-10T09:50:24;5.82;;;5.25;;
483;SDS011;228;48.922;12.198;2023-06-10T09:52:51;5.72;;;5.22;;
483;SDS011;228;48.922;12.198;2023-06-10T09:55:17;6.10;;;5.25;;
483;SDS011;228;48.922;12.198;2023-06-10T09:57:43;5.43;;;4.97;;
483;SDS011;228;48.922;12.198;2023-06-10T10:00:13;5.10;;;4.70;;
483;SDS011;228;48.922;12.198;2023-06-10T10:02:53;5.05;;;4.55;;
483;SDS011;228;48.922;12.198;2023-06-10T10:05:20;5.50;;;4.90;;
483;SDS011;228;48.922;12.198;2023-06-10T10:07:48;5.25;;;4.85;;
483;SDS011;228;48.922;12.198;2023-06-10T10:10:17;5.50;;;5.00;;
483;SDS011;228;48.922;12.198;2023-06-10T10:12:50;5.55;;;5.10;;
483;SDS011;228;48.922;12.198;2023-06-10T10:15:24;5.78;;;5.32;;
483;SDS011;228;48.922;12.198;2023-06-10T10:18:00;5.22;;;4.72;;
483;SDS011;228;48.922;12.198;2023-06-10T10:20:37;5.65;;;5.15;;
483;SDS011;228;48.922;12.198;2023-06-10T10:23:12;5.68;;;5.18;;
483;SDS011;228;48.922;12.198;2023-06-10T10:25:44;5.68;;;5.18;;
483;SDS011;228;48.922;12.198;2023-06-10T10:28:17;5.28;;;4.78;;
483;SDS011;228;48.922;12.198;2023-06-10T10:30:50;5.80;;;5.20;;
483;SDS011;228;48.922;12.198;2023-06-10T10:33:28;5.55;;;5.05;;
483;SDS011;228;48.922;12.198;2023-06-10T10:36:27;4.80;;;4.40;;
483;SDS011;228;48.922;12.198;2023-06-10T10:38:57;5.00;;;4.60;;
483;SDS011;228;48.922;12.198;2023-06-10T10:41:24;7.53;;;6.93;;
483;SDS011;228;48.922;12.198;2023-06-10T10:43:52;5.60;;;5.18;;
483;SDS011;228;48.922;12.198;2023-06-10T10:46:19;5.50;;;5.10;;
483;SDS011;228;48.922;12.198;2023-06-10T10:48:45;5.15;;;4.75;;
483;SDS011;228;48.922;12.198;2023-06-10T10:51:17;5.28;;;4.80;;
483;SDS011;228;48.922;12.198;2023-06-10T10:53:43;5.85;;;5.30;;
483;SDS011;228;48.922;12.198;2023-06-10T10:56:38;5.65;;;5.15;;
483;SDS011;228;48.922;12.198;2023-06-10T10:59:04;5.68;;;5.18;;
483;SDS011;228;48.922;12.198;2023-06-10T11:01:41;5.75;;;5.25;;
483;SDS011;228;48.922;12.198;2023-06-10T11:04:11;5.65;;;5.15;;
483;SDS011;228;48.922;12.198;2023-06-10T11:06:37;5.50;;;5.00;;
483;SDS011;228;48.922;12.198;2023-06-10T11:09:25;6.10;;;5.60;;
483;SDS011;228;48.922;12.198;2023-06-10T11:11:56;5.85;;;5.25;;
483;SDS011;228;48.922;12.198;2023-06-10T11:14:28;5.88;;;5.38;;
483;SDS011;228;48.922;12.198;2023-06-10T11:16:58;5.75;;;5.25;;
483;SDS011;228;48.922;12.198;2023-06-10T11:19:36;6.30;;;5.70;;
483;SDS011;228;48.922;12.198;2023-06-10T11:22:07;6.10;;;5.50;;
483;SDS011;228;48.922;12.198;2023-06-10T11:24:35;5.78;;;5.28;;
483;SDS011;228;48.922;12.198;2023-06-10T11:27:20;6.68;;;6.07;;
483;SDS011;228;48.922;12.198;2023-06-10T11:32:31;6.00;;;5.50;;
483;SDS011;228;48.922;12.198;2023-06-10T11:35:00;5.95;;;5.45;;
483;SDS011;228;48.922;12.198;2023-06-10T11:37:29;5.72;;;5.22;;
483;SDS011;228;48.922;12.198;2023-06-10T11:39:56;6.05;;;5.55;;
483;SDS011;228;48.922;12.198;2023-06-10T11:42:24;6.15;;;5.55;;
483;SDS011;228;48.922;12.198;2023-06-10T11:44:50;5.90;;;5.40;;
483;SDS011;228;48.922;12.198;2023-06-10T11:47:18;5.85;;;5.35;;
483;SDS011;228;48.922;12.198;2023-06-10T11:49:45;5.47;;;4.97;;
483;SDS011;228;48.922;12.198;2023-06-10T11:52:39;5.47;;;5.07;;
483;SDS011;228;48.922;12.198;2023-06-10T11:55:06;5.55;;;5.05;;
483;SDS011;228;48.922;12.198;2023-06-10T11:57:34;7.10;;;5.38;;
483;SDS011;228;48.922;12.198;2023-06-10T12:00:07;5.95;;;5.30;;
483;SDS011;228;48.922;12.198;2023-06-10T12:02:37;5.47;;;5.00;;
483;SDS011;228;48.922;12.198;2023-06-10T12:05:13;6.25;;;5.65;;
483;SDS011;228;48.922;12.198;2023-06-10T12:07:39;6.32;;;5.72;;
483;SDS011;228;48.922;12.198;2023-06-10T12:10:06;5.25;;;4.82;;
483;SDS011;228;48.922;12.198;2023-06-10T12:12:34;5.50;;;4.97;;
483;SDS011;228;48.922;12.198;2023-06-10T12:15:02;4.75;;;4.35;;
483;SDS011;228;48.922;12.198;2023-06-10T12:19:57;3.70;;;3.40;;
483;SDS011;228;48.922;12.198;2023-06-10T12:22:24;3.92;;;3.42;;
483;SDS011;228;48.922;12.198;2023-06-10T12:25:04;3.78;;;3.47;;
483;SDS011;228;48.922;12.198;2023-06-10T12:27:32;3.90;;;3.60;;
483;SDS011;228;48.922;12.198;2023-06-10T12:29:59;4.63;;;4.20;;
483;SDS011;228;48.922;12.198;2023-06-10T12:32:39;4.10;;;3.80;;
483;SDS011;228;48.922;12.198;2023-06-10T12:35:12;5.00;;;4.00;;
483;SDS011;228;48.922;12.198;2023-06-10T12:37:54;4.40;;;4.00;;
483;SDS011;228;48.922;12.198;2023-06-10T12:40:38;4.20;;;3.90;;
483;SDS011;228;48.922;12.198;2023-06-10T12:43:06;4.68;;;4.28;;
483;SDS011;228;48.922;12.198;2023-06-10T12:45:33;3.95;;;3.70;;
483;SDS011;228;48.922;12.198;2023-06-10T12:50:54;5.43;;;4.95;;
483;SDS011;228;48.922;12.198;2023-06-10T12:53:23;5.35;;;4.95;;
483;SDS011;228;48.922;12.198;2023-06-10T12:55:53;5.65;;;5.25;;
483;SDS011;228;48.922;12.198;2023-06-10T12:58:20;5.40;;;5.00;;
483;SDS011;228;48.922;12.198;2023-06-10T13:00:47;5.10;;;4.70;;
483;SDS011;228;48.922;12.198;2023-06-10T13:03:14;5.30;;;4.90;;
483;SDS011;228;48.922;12.198;2023-06-10T13:05:40;4.80;;;4.50;;
483;SDS011;228;48.922;12.198;2023-06-10T13:08:07;5.22;;;4.82;;
483;SDS011;228;48.922;12.198;2023-06-10T13:10:37;4.53;;;4.20;;
483;SDS011;228;48.922;12.198;2023-06-10T13:13:03;4.93;;;4.53;;
483;SDS011;228;48.922;12.198;2023-06-10T13:15:31;5.15;;;4.75;;
483;SDS011;228;48.922;12.198;2023-06-10T13:18:02;5.07;;;4.68;;
483;SDS011;228;48.922;12.198;2023-06-10T13:20:29;5.10;;;4.70;;
483;SDS011;228;48.922;12.198;2023-06-10T13:22:56;5.05;;;4.65;;
483;SDS011;228;48.922;12.198;2023-06-10T13:25:22;5.55;;;5.10;;
483;SDS011;228;48.922;12.198;2023-06-10T13:27:49;5.47;;;5.07;;
483;SDS011;228;48.922;12.198;2023-06-10T13:30:15;5.80;;;5.30;;
483;SDS011;228;48.922;12.198;2023-06-10T13:32:41;5.50;;;5.10;;
483;SDS011;228;48.922;12.198;2023-06-10T13:35:07;6.07;;;5.57;;
483;SDS011;228;48.922;12.198;2023-06-10T13:37:34;5.80;;;5.30;;
483;SDS011;228;48.922;12.198;2023-06-10T13:40:01;5.80;;;5.35;;
483;SDS011;228;48.922;12.198;2023-06-10T13:42:29;5.63;;;5.10;;
483;SDS011;228;48.922;12.198;2023-06-10T13:44:55;5.45;;;5.00;;
483;SDS011;228;48.922;12.198;2023-06-10T13:47:22;5.00;;;4.60;;
483;SDS011;228;48.922;12.198;2023-06-10T13:49:49;5.03;;;4.63;;
483;SDS011;228;48.922;12.198;2023-06-10T13:52:15;4.70;;;4.30;;
483;SDS011;228;48.922;12.198;2023-06-10T13:54:42;4.50;;;4.10;;
483;SDS011;228;48.922;12.198;2023-06-10T13:57:08;4.20;;;3.90;;
483;SDS011;228;48.922;12.198;2023-06-10T13:59:35;4.53;;;4.13;;
483;SDS011;228;48.922;12.198;2023-06-10T14:02:02;4.88;;;4.47;;
483;SDS011;228;48.922;12.198;2023-06-10T14:04:29;5.30;;;4.45;;
483;SDS011;228;48.922;12.198;2023-06-10T14:06:56;5.18;;;4.78;;
483;SDS011;228;48.922;12.198;2023-06-10T14:09:22;4.25;;;3.40;;
483;SDS011;228;48.922;12.198;2023-06-10T14:11:48;3.63;;;3.33;;
483;SDS011;228;48.922;12.198;2023-06-10T14:14:14;21.52;;;5.70;;
483;SDS011;228;48.922;12.198;2023-06-10T14:16:40;5.32;;;4.80;;
483;SDS011;228;48.922;12.198;2023-06-10T14:19:06;7.43;;;5.07;;
483;SDS011;228;48.922;12.198;2023-06-10T14:21:33;5.15;;;4.70;;
483;SDS011;228;48.922;12.198;2023-06-10T14:23:59;5.43;;;4.53;;
483;SDS011;228;48.922;12.198;2023-06-10T14:26:25;4.47;;;4.07;;
483;SDS011;228;48.922;12.198;2023-06-10T14:28:51;4.45;;;3.83;;
483;SDS011;228;48.922;12.198;2023-06-10T14:31:17;4.60;;;4.20;;
483;SDS011;228;48.922;12.198;2023-06-10T14:33:43;5.60;;;4.22;;
483;SDS011;228;48.922;12.198;2023-06-10T14:36:10;4.38;;;3.90;;
483;SDS011;228;48.922;12.198;2023-06-10T14:38:36;4.75;;;4.10;;
483;SDS011;228;48.922;12.198;2023-06-10T14:41:02;3.90;;;3.60;;
483;SDS011;228;48.922;12.198;2023-06-10T14:43:28;4.10;;;3.80;;
483;SDS011;228;48.922;12.198;2023-06-10T14:45:54;4.38;;;4.00;;
483;SDS011;228;48.922;12.198;2023-06-10T14:48:21;3.88;;;3.58;;
483;SDS011;228;48.922;12.198;2023-06-10T14:50:47;4.38;;;3.97;;
483;SDS011;228;48.922;12.198;2023-06-10T14:53:19;4.03;;;3.70;;
483;SDS011;228;48.922;12.198;2023-06-10T14:55:45;4.15;;;3.75;;
483;SDS011;228;48.922;12.198;2023-06-10T14:58:11;4.40;;;4.00;;
483;SDS011;228;48.922;12.198;2023-06-10T15:00:37;4.95;;;4.55;;
483;SDS011;228;48.922;12.198;2023-06-10T15:03:03;5.03;;;4.63;;
483;SDS011;228;48.922;12.198;2023-06-10T15:05:29;4.90;;;4.50;;
483;SDS011;228;48.922;12.198;2023-06-10T15:07:55;5.03;;;4.53;;
483;SDS011;228;48.922;12.198;2023-06-10T15:10:22;5.47;;;4.97;;
483;SDS011;228;48.922;12.198;2023-06-10T15:12:48;5.43;;;4.93;;
483;SDS011;228;48.922;12.198;2023-06-10T15:15:24;5.93;;;5.35;;
483;SDS011;228;48.922;12.198;2023-06-10T15:17:51;6.05;;;5.50;;
483;SDS011;228;48.922;12.198;2023-06-10T15:20:18;5.80;;;5.30;;
483;SDS011;228;48.922;12.198;2023-06-10T15:22:44;5.78;;;5.18;;
483;SDS011;228;48.922;12.198;2023-06-10T15:25:10;5.57;;;5.07;;
483;SDS011;228;48.922;12.198;2023-06-10T15:27:36;6.10;;;5.50;;
483;SDS011;228;48.922;12.198;2023-06-10T15:30:03;6.10;;;5.60;;
483;SDS011;228;48.922;12.198;2023-06-10T15:32:31;6.35;;;5.75;;
483;SDS011;228;48.922;12.198;2023-06-10T15:34:58;7.03;;;6.20;;
483;SDS011;228;48.922;12.198;2023-06-10T15:37:24;6.63;;;5.63;;
483;SDS011;228;48.922;12.198;2023-06-10T15:39:50;5.90;;;5.40;;
483;SDS011;228;48.922;12.198;2023-06-10T15:42:16;5.38;;;4.88;;
483;SDS011;228;48.922;12.198;2023-06-10T15:44:42;5.93;;;5.43;;
483;SDS011;228;48.922;12.198;2023-06-10T15:47:08;8.38;;;6.15;;
483;SDS011;228;48.922;12.198;2023-06-10T15:49:34;7.30;;;6.60;;
483;SDS011;228;48.922;12.198;2023-06-10T15:52:00;6.00;;;5.40;;
483;SDS011;228;48.922;12.198;2023-06-10T15:54:26;5.57;;;5.07;;
483;SDS011;228;48.922;12.198;2023-06-10T15:56:52;5.53;;;4.82;;
483;SDS011;228;48.922;12.198;2023-06-10T15:59:18;6.00;;;5.47;;
483;SDS011;228;48.922;12.198;2023-06-10T16:01:44;6.10;;;5.50;;
483;SDS011;228;48.922;12.198;2023-06-10T16:04:10;5.93;;;5.43;;
483;SDS011;228;48.922;12.198;2023-06-10T16:06:36;5.40;;;4.90;;
483;SDS011;228;48.922;12.198;2023-06-10T16:09:02;5.55;;;5.05;;
483;SDS011;228;48.922;12.198;2023-06-10T16:11:28;8.65;;;6.10;;
483;SDS011;228;48.922;12.198;2023-06-10T16:13:55;8.60;;;7.15;;
483;SDS011;228;48.922;12.198;2023-06-10T16:16:21;9.23;;;7.25;;
483;SDS011;228;48.922;12.198;2023-06-10T16:18:47;6.68;;;6.07;;
483;SDS011;228;48.922;12.198;2023-06-10T16:21:13;6.22;;;5.63;;
483;SDS011;228;48.922;12.198;2023-06-10T16:23:40;6.35;;;5.75;;
483;SDS011;228;48.922;12.198;2023-06-10T16:26:05;5.90;;;5.40;;
483;SDS011;228;48.922;12.198;2023-06-10T16:28:31;5.90;;;5.40;;
483;SDS011;228;48.922;12.198;2023-06-10T16:30:57;5.75;;;5.25;;
483;SDS011;228;48.922;12.198;2023-06-10T16:33:24;5.75;;;5.25;;
483;SDS011;228;48.922;12.198;2023-06-10T16:35:49;5.45;;;5.00;;
483;SDS011;228;48.922;12.198;2023-06-10T16:38:15;7.30;;;5.82;;
483;SDS011;228;48.922;12.198;2023-06-10T16:40:42;6.78;;;6.10;;
483;SDS011;228;48.922;12.198;2023-06-10T16:43:07;6.43;;;5.60;;
483;SDS011;228;48.922;12.198;2023-06-10T16:45:34;6.03;;;5.50;;
483;SDS011;228;48.922;12.198;2023-06-10T16:47:59;5.70;;;5.20;;
483;SDS011;228;48.922;12.198;2023-06-10T16:50:25;6.25;;;5.65;;
483;SDS011;228;48.922;12.198;2023-06-10T16:52:51;6.25;;;5.72;;
483;SDS011;228;48.922;12.198;2023-06-10T16:55:17;5.60;;;5.10;;
483;SDS011;228;48.922;12.198;2023-06-10T16:57:43;5.38;;;4.88;;
483;SDS011;228;48.922;12.198;2023-06-10T17:00:10;6.47;;;5.70;;
483;SDS011;228;48.922;12.198;2023-06-10T17:02:36;6.07;;;5.30;;
483;SDS011;228;48.922;12.198;2023-06-10T17:05:02;6.70;;;6.10;;
483;SDS011;228;48.922;12.198;2023-06-10T17:07:28;6.03;;;5.53;;
483;SDS011;228;48.922;12.198;2023-06-10T17:09:55;5.57;;;5.10;;
483;SDS011;228;48.922;12.198;2023-06-10T17:12:22;5.65;;;5.15;;
483;SDS011;228;48.922;12.198;2023-06-10T17:14:48;5.75;;;5.25;;
483;SDS011;228;48.922;12.198;2023-06-10T17:17:14;6.10;;;5.50;;
483;SDS011;228;48.922;12.198;2023-06-10T17:19:40;6.13;;;5.53;;
483;SDS011;228;48.922;12.198;2023-06-10T17:22:06;4.53;;;3.95;;
483;SDS011;228;48.922;12.198;2023-06-10T17:24:32;3.90;;;3.60;;
483;SDS011;228;48.922;12.198;2023-06-10T17:26:59;4.30;;;3.90;;
483;SDS011;228;48.922;12.198;2023-06-10T17:29:25;5.57;;;4.35;;
483;SDS011;228;48.922;12.198;2023-06-10T17:31:53;9.63;;;4.88;;
483;SDS011;228;48.922;12.198;2023-06-10T17:34:21;6.40;;;4.10;;
483;SDS011;228;48.922;12.198;2023-06-10T17:36:50;7.05;;;3.97;;
483;SDS011;228;48.922;12.198;2023-06-10T17:39:16;5.40;;;3.30;;
483;SDS011;228;48.922;12.198;2023-06-10T17:41:42;8.88;;;3.22;;
483;SDS011;228;48.922;12.198;2023-06-10T17:44:08;5.25;;;4.00;;
483;SDS011;228;48.922;12.198;2023-06-10T17:46:34;4.10;;;3.45;;
483;SDS011;228;48.922;12.198;2023-06-10T17:49:00;6.25;;;3.30;;
483;SDS011;228;48.922;12.198;2023-06-10T17:51:26;6.13;;;3.88;;
483;SDS011;228;48.922;12.198;2023-06-10T17:53:52;5.18;;;4.05;;
483;SDS011;228;48.922;12.198;2023-06-10T17:56:18;6.18;;;3.95;;
483;SDS011;228;48.922;12.198;2023-06-10T17:58:45;4.65;;;4.15;;
483;SDS011;228;48.922;12.198;2023-06-10T18:01:12;5.32;;;4.22;;
483;SDS011;228;48.922;12.198;2023-06-10T18:03:38;4.55;;;4.15;;
483;SDS011;228;48.922;12.198;2023-06-10T18:06:04;5.03;;;4.32;;
483;SDS011;228;48.922;12.198;2023-06-10T18:08:32;5.78;;;4.10;;
483;SDS011;228;48.922;12.198;2023-06-10T18:11:00;7.25;;;4.30;;
483;SDS011;228;48.922;12.198;2023-06-10T18:13:28;5.32;;;4.50;;
483;SDS011;228;48.922;12.198;2023-06-10T18:15:57;5.22;;;4.15;;
483;SDS011;228;48.922;12.198;2023-06-10T18:18:28;6.13;;;4.22;;
483;SDS011;228;48.922;12.198;2023-06-10T18:20:55;5.15;;;4.40;;
483;SDS011;228;48.922;12.198;2023-06-10T18:23:21;5.40;;;4.32;;
483;SDS011;228;48.922;12.198;2023-06-10T18:25:48;5.82;;;4.38;;
483;SDS011;228;48.922;12.198;2023-06-10T18:28:14;4.60;;;3.97;;
483;SDS011;228;48.922;12.198;2023-06-10T18:30:42;4.47;;;4.05;;
483;SDS011;228;48.922;12.198;2023-06-10T18:33:10;6.03;;;3.67;;
483;SDS011;228;48.922;12.198;2023-06-10T18:35:37;4.60;;;4.00;;
483;SDS011;228;48.922;12.198;2023-06-10T18:38:04;4.90;;;3.97;;
483;SDS011;228;48.922;12.198;2023-06-10T18:40:30;5.05;;;3.83;;
483;SDS011;228;48.922;12.198;2023-06-10T18:42:56;4.40;;;3.80;;
483;SDS011;228;48.922;12.198;2023-06-10T18:45:23;4.85;;;4.13;;
483;SDS011;228;48.922;12.198;2023-06-10T18:47:50;3.97;;;3.58;;
483;SDS011;228;48.922;12.198;2023-06-10T18:50:16;6.28;;;4.20;;
483;SDS011;228;48.922;12.198;2023-06-10T18:52:42;4.38;;;3.97;;
483;SDS011;228;48.922;12.198;2023-06-10T18:55:09;4.78;;;4.38;;
483;SDS011;228;48.922;12.198;2023-06-10T18:57:36;4.30;;;3.83;;
483;SDS011;228;48.922;12.198;2023-06-10T19:00:02;4.57;;;3.78;;
483;SDS011;228;48.922;12.198;2023-06-10T19:02:30;4.75;;;4.35;;
483;SDS011;228;48.922;12.198;2023-06-10T19:04:59;4.97;;;4.47;;
483;SDS011;228;48.922;12.198;2023-06-10T19:07:25;4.78;;;4.35;;
483;SDS011;228;48.922;12.198;2023-06-10T19:09:52;5.10;;;4.60;;
483;SDS011;228;48.922;12.198;2023-06-10T19:12:18;4.63;;;4.22;;
483;SDS011;228;48.922;12.198;2023-06-10T19:14:48;5.88;;;4.70;;
483;SDS011;228;48.922;12.198;2023-06-10T19:17:14;5.30;;;4.80;;
483;SDS011;228;48.922;12.198;2023-06-10T19:19:42;5.53;;;4.53;;
483;SDS011;228;48.922;12.198;2023-06-10T19:22:11;5.97;;;5.40;;
483;SDS011;228;48.922;12.198;2023-06-10T19:24:37;5.93;;;5.00;;
483;SDS011;228;48.922;12.198;2023-06-10T19:27:06;6.70;;;5.75;;
483;SDS011;228;48.922;12.198;2023-06-10T19:29:34;7.85;;;6.03;;
483;SDS011;228;48.922;12.198;2023-06-10T19:32:04;5.72;;;5.20;;
483;SDS011;228;48.922;12.198;2023-06-10T19:34:32;5.97;;;5.30;;
483;SDS011;228;48.922;12.198;2023-06-10T19:36:59;6.60;;;5.60;;
483;SDS011;228;48.922;12.198;2023-06-10T19:39:25;5.80;;;5.20;;
483;SDS011;228;48.922;12.198;2023-06-10T19:41:52;6.13;;;5.22;;
483;SDS011;228;48.922;12.198;2023-06-10T19:44:18;5.70;;;5.20;;